Time;durP1;ratioP1;P1;durP2;ratioP2;P2;SDS_P1;SDS_P2;PMS_P1;PMS_P2;Temp;Humidity;BMP_temperature;BMP_pressure;BME280_temperature;BME280_humidity;BME280_pressure;Samples;Min_cycle;Max_cycle;Signal;HPM_P1;HPM_P2
2022/12/08 00:01:08;;;;;;;29.77;16.57;;;4.00;99.90;;;;;;5013171;28;20030;-56
2022/12/08 00:03:34;;;;;;;26.93;15.97;;;4.00;99.90;;;;;;5012900;28;20065;-52
2022/12/08 00:11:31;;;;;;;24.30;15.07;;;4.00;99.90;;;;;;5012749;28;20041;-55
2022/12/08 00:13:57;;;;;;;23.77;14.67;;;4.10;99.90;;;;;;5012771;28;20030;-53
2022/12/08 00:16:23;;;;;;;21.37;14.13;;;4.10;99.90;;;;;;5011358;28;20399;-53
2022/12/08 00:18:48;;;;;;;23.90;14.60;;;4.10;99.90;;;;;;5013016;28;20037;-52
2022/12/08 00:21:14;;;;;;;24.33;14.13;;;4.10;99.90;;;;;;5012680;28;20034;-53
2022/12/08 00:23:40;;;;;;;24.17;12.77;;;4.00;99.90;;;;;;5012859;28;20034;-54
2022/12/08 00:26:07;;;;;;;21.40;13.00;;;4.00;99.90;;;;;;5012704;28;20034;-54
2022/12/08 00:28:33;;;;;;;18.23;12.80;;;4.10;99.90;;;;;;5010883;28;20565;-56
2022/12/08 00:31:00;;;;;;;20.17;12.97;;;4.10;99.90;;;;;;5012444;28;20026;-55
2022/12/08 00:33:27;;;;;;;21.33;12.93;;;4.10;99.90;;;;;;5012504;28;20478;-55
2022/12/08 00:35:53;;;;;;;21.77;13.13;;;4.00;99.90;;;;;;5012472;28;20041;-55
2022/12/08 00:38:19;;;;;;;21.73;13.07;;;4.00;99.90;;;;;;5012496;28;20029;-54
2022/12/08 00:40:45;;;;;;;21.23;12.70;;;4.00;99.90;;;;;;5012181;28;20042;-54
2022/12/08 00:43:12;;;;;;;20.57;13.80;;;4.00;99.90;;;;;;5012221;28;20037;-55
2022/12/08 00:45:38;;;;;;;22.17;12.77;;;4.00;99.90;;;;;;5012602;28;20068;-52
2022/12/08 00:48:04;;;;;;;20.60;13.30;;;4.00;99.90;;;;;;5011435;28;20450;-57
2022/12/08 00:50:29;;;;;;;20.83;13.17;;;4.00;99.90;;;;;;5011928;28;20125;-57
2022/12/08 00:52:55;;;;;;;25.13;13.73;;;4.00;99.90;;;;;;5012319;28;20453;-52
2022/12/08 00:55:21;;;;;;;21.97;13.60;;;4.00;99.90;;;;;;5012185;28;20033;-53
2022/12/08 00:57:46;;;;;;;21.03;13.53;;;3.90;99.90;;;;;;5011606;28;20558;-52
2022/12/08 01:00:13;;;;;;;21.40;14.17;;;4.00;99.90;;;;;;5011804;28;20045;-54
2022/12/08 01:02:39;;;;;;;30.33;13.90;;;3.90;99.90;;;;;;5011972;28;20053;-54
2022/12/08 01:05:05;;;;;;;21.70;15.03;;;3.90;99.90;;;;;;5012173;28;20480;-53
2022/12/08 01:07:31;;;;;;;25.30;14.90;;;3.90;99.90;;;;;;5011565;28;20155;-54
2022/12/08 01:09:57;;;;;;;24.70;13.63;;;3.90;99.90;;;;;;5011606;28;20471;-55
2022/12/08 01:12:22;;;;;;;23.53;14.20;;;3.90;99.90;;;;;;5011873;28;20122;-53
2022/12/08 01:14:48;;;;;;;23.20;14.30;;;4.00;99.90;;;;;;5011778;28;20395;-54
2022/12/08 01:17:14;;;;;;;26.03;15.23;;;4.00;99.90;;;;;;5011741;28;20026;-55
2022/12/08 01:19:39;;;;;;;25.13;15.40;;;4.00;99.90;;;;;;5011461;28;20029;-55
2022/12/08 01:22:05;;;;;;;25.50;14.57;;;4.00;99.90;;;;;;5011672;28;20064;-53
2022/12/08 01:24:31;;;;;;;27.53;15.23;;;4.00;99.90;;;;;;5011694;28;20113;-51
2022/12/08 01:26:56;;;;;;;27.33;16.37;;;4.00;99.90;;;;;;5011242;28;20033;-53
2022/12/08 01:29:22;;;;;;;27.03;16.90;;;4.00;99.90;;;;;;5011680;28;20415;-52
2022/12/08 01:31:48;;;;;;;30.37;18.67;;;4.00;99.90;;;;;;5011342;28;20042;-54
2022/12/08 01:34:14;;;;;;;30.43;18.57;;;4.00;99.90;;;;;;5011648;28;20069;-53
2022/12/08 01:36:41;;;;;;;37.23;20.60;;;4.00;99.90;;;;;;5011262;28;20053;-53
2022/12/08 01:39:12;;;;;;;35.00;19.63;;;4.00;99.90;;;;;;5011132;28;20502;-55
2022/12/08 01:41:38;;;;;;;35.90;20.20;;;4.00;99.90;;;;;;5011234;28;20125;-53
2022/12/08 01:44:07;;;;;;;37.53;21.13;;;4.10;99.90;;;;;;5011629;28;20458;-54
2022/12/08 01:46:35;;;;;;;41.78;22.88;;;4.10;99.90;;;;;;5011417;28;20042;-51
2022/12/08 01:49:10;;;;;;;39.03;22.37;;;4.10;99.90;;;;;;5011133;28;20545;-50
2022/12/08 01:51:52;;;;;;;39.93;21.93;;;4.00;99.90;;;;;;5011088;28;20129;-50
2022/12/08 01:54:21;;;;;;;40.67;22.07;;;4.00;99.90;;;;;;5011201;28;20038;-52
2022/12/08 01:57:05;;;;;;;39.50;22.33;;;4.10;99.90;;;;;;5010991;28;20534;-54
2022/12/08 01:59:34;;;;;;;42.03;22.73;;;4.00;99.90;;;;;;5008846;28;20137;-51
2022/12/08 02:02:01;;;;;;;41.30;22.87;;;4.00;99.90;;;;;;5011122;28;20038;-51
2022/12/08 02:04:26;;;;;;;42.57;22.80;;;4.00;99.90;;;;;;5011158;28;20057;-51
2022/12/08 02:06:53;;;;;;;41.40;23.63;;;4.00;99.90;;;;;;5010995;28;20029;-51
2022/12/08 02:09:20;;;;;;;47.07;24.53;;;4.00;99.90;;;;;;5010958;28;20032;-49
2022/12/08 02:11:46;;;;;;;40.47;23.23;;;4.00;99.90;;;;;;5010880;28;20034;-54
2022/12/08 02:14:13;;;;;;;42.43;23.03;;;4.00;99.90;;;;;;5011190;28;20026;-53
2022/12/08 02:17:10;;;;;;;44.47;24.40;;;4.00;99.90;;;;;;5010881;28;20030;-53
2022/12/08 02:19:50;;;;;;;40.63;22.03;;;4.00;99.90;;;;;;5011019;28;20033;-54
2022/12/08 02:22:28;;;;;;;41.13;23.40;;;4.00;99.90;;;;;;5010999;28;20026;-54
2022/12/08 02:25:02;;;;;;;43.13;23.33;;;4.00;99.90;;;;;;5010974;28;20049;-51
2022/12/08 02:28:13;;;;;;;40.33;22.57;;;4.00;99.90;;;;;;5010621;28;20030;-50
2022/12/08 02:31:15;;;;;;;46.37;22.60;;;4.10;99.90;;;;;;5010707;28;20046;-52
2022/12/08 02:34:24;;;;;;;43.17;23.60;;;4.10;99.90;;;;;;5010808;28;20084;-52
2022/12/08 02:36:55;;;;;;;41.55;22.70;;;4.20;99.90;;;;;;5017120;28;20037;-51
2022/12/08 02:39:32;;;;;;;42.37;23.23;;;4.20;99.90;;;;;;5010831;28;20375;-54
2022/12/08 02:42:07;;;;;;;44.47;24.10;;;4.10;99.90;;;;;;5010773;28;20034;-49
2022/12/08 02:44:36;;;;;;;43.03;22.43;;;4.10;99.90;;;;;;5011018;28;20046;-55
2022/12/08 02:47:17;;;;;;;41.83;23.42;;;4.10;99.90;;;;;;5010577;28;20037;-52
2022/12/08 02:49:43;;;;;;;43.80;22.83;;;4.10;99.90;;;;;;5010459;28;20029;-55
2022/12/08 02:52:12;;;;;;;43.50;22.77;;;4.20;99.90;;;;;;5010776;28;20504;-55
2022/12/08 02:54:44;;;;;;;39.30;22.95;;;4.20;99.90;;;;;;5010524;28;20052;-54
2022/12/08 02:57:47;;;;;;;43.63;23.63;;;4.20;99.90;;;;;;5010324;28;20058;-54
2022/12/08 03:00:16;;;;;;;41.67;22.10;;;4.20;99.90;;;;;;5010430;28;20050;-52
2022/12/08 03:02:53;;;;;;;42.83;22.70;;;4.20;99.90;;;;;;5010530;28;20034;-53
2022/12/08 03:05:41;;;;;;;38.57;21.40;;;4.20;99.90;;;;;;5010511;28;20034;-50
2022/12/08 03:08:30;;;;;;;35.90;20.27;;;4.20;99.90;;;;;;5010234;28;20021;-50
2022/12/08 03:11:24;;;;;;;38.25;20.40;;;4.20;99.90;;;;;;5011309;28;20034;-52
2022/12/08 03:13:57;;;;;;;40.47;22.27;;;4.10;99.90;;;;;;5017360;28;20533;-51
2022/12/08 03:16:26;;;;;;;42.60;21.90;;;4.20;99.90;;;;;;5014037;28;20026;-51
2022/12/08 03:19:21;;;;;;;39.60;21.42;;;4.10;99.90;;;;;;5013678;28;20030;-51
2022/12/08 03:21:52;;;;;;;38.83;21.87;;;4.20;99.90;;;;;;5014000;28;20046;-53
2022/12/08 03:24:20;;;;;;;39.07;22.47;;;4.20;99.90;;;;;;5013867;28;20494;-53
2022/12/08 03:27:02;;;;;;;40.55;22.27;;;4.10;99.90;;;;;;5013765;28;20064;-52
2022/12/08 03:29:29;;;;;;;37.37;20.57;;;4.20;99.90;;;;;;5013690;28;20034;-51
2022/12/08 03:31:59;;;;;;;39.57;21.97;;;4.20;99.90;;;;;;5013473;28;20091;-52
2022/12/08 03:34:27;;;;;;;36.47;20.60;;;4.20;99.90;;;;;;5013660;28;20120;-52
2022/12/08 03:36:53;;;;;;;36.07;21.30;;;4.20;99.90;;;;;;5013190;28;20034;-51
2022/12/08 03:39:19;;;;;;;36.47;21.03;;;4.20;99.90;;;;;;5013405;28;20037;-52
2022/12/08 03:41:45;;;;;;;37.00;20.53;;;4.30;99.90;;;;;;5013490;28;20497;-53
2022/12/08 03:44:12;;;;;;;43.37;21.10;;;4.30;99.90;;;;;;5013564;28;20431;-53
2022/12/08 03:46:37;;;;;;;40.30;20.77;;;4.20;99.90;;;;;;5013123;28;20479;-52
2022/12/08 03:49:03;;;;;;;34.67;21.03;;;4.20;99.90;;;;;;5013112;28;20084;-52
2022/12/08 03:51:29;;;;;;;33.77;19.63;;;4.20;99.90;;;;;;5013260;28;20069;-53
2022/12/08 03:53:55;;;;;;;37.83;20.50;;;4.20;99.90;;;;;;5013737;28;20034;-52
2022/12/08 03:56:35;;;;;;;39.97;20.87;;;4.20;99.90;;;;;;5013152;28;20030;-50
2022/12/08 03:59:01;;;;;;;34.47;19.43;;;4.20;99.90;;;;;;5012763;28;20063;-53
2022/12/08 04:01:27;;;;;;;37.83;20.77;;;4.20;99.90;;;;;;5013133;28;20040;-52
2022/12/08 04:03:53;;;;;;;35.57;19.47;;;4.20;99.90;;;;;;5013022;28;20486;-54
2022/12/08 04:06:20;;;;;;;34.23;19.90;;;4.20;99.90;;;;;;5013068;28;20084;-54
2022/12/08 04:08:46;;;;;;;33.13;19.40;;;4.20;99.90;;;;;;5012733;28;20030;-52
2022/12/08 04:11:12;;;;;;;33.30;18.93;;;4.20;99.90;;;;;;5012918;28;20036;-51
2022/12/08 04:13:39;;;;;;;33.30;19.10;;;4.20;99.90;;;;;;5012843;28;20477;-55
2022/12/08 04:16:06;;;;;;;29.73;18.03;;;4.20;99.90;;;;;;5012816;28;20030;-54
2022/12/08 04:18:33;;;;;;;30.90;18.20;;;4.20;99.90;;;;;;5012270;28;20531;-53
2022/12/08 04:20:58;;;;;;;30.97;18.07;;;4.20;99.90;;;;;;5012721;28;20157;-51
2022/12/08 04:23:24;;;;;;;29.27;17.97;;;4.20;99.90;;;;;;5011893;28;20109;-55
2022/12/08 04:25:51;;;;;;;30.07;18.10;;;4.20;99.90;;;;;;5012685;28;20034;-51
2022/12/08 04:28:17;;;;;;;31.03;17.47;;;4.20;99.90;;;;;;5027554;28;20038;-51
2022/12/08 04:30:43;;;;;;;31.97;17.57;;;4.20;99.90;;;;;;5012256;28;20117;-52
2022/12/08 04:33:08;;;;;;;31.20;18.27;;;4.20;99.90;;;;;;5012667;28;20033;-50
2022/12/08 04:35:35;;;;;;;30.73;16.80;;;4.20;99.90;;;;;;5012528;28;20034;-54
2022/12/08 04:38:00;;;;;;;28.63;16.67;;;4.20;99.90;;;;;;5012057;28;20034;-55
2022/12/08 04:40:26;;;;;;;32.27;18.53;;;4.30;99.90;;;;;;5012284;28;20076;-54
2022/12/08 04:42:52;;;;;;;32.10;18.07;;;4.20;99.90;;;;;;5012401;28;20040;-53
2022/12/08 04:45:17;;;;;;;28.83;17.37;;;4.20;99.90;;;;;;5012425;28;20034;-50
2022/12/08 04:47:43;;;;;;;28.87;16.50;;;4.20;99.90;;;;;;5012032;28;20367;-51
2022/12/08 04:50:09;;;;;;;28.90;15.63;;;4.20;99.90;;;;;;5011951;28;20113;-54
2022/12/08 04:52:35;;;;;;;27.53;17.03;;;4.20;99.90;;;;;;5012173;28;20104;-50
2022/12/08 04:55:01;;;;;;;25.30;16.00;;;4.20;99.90;;;;;;5012217;28;20379;-56
2022/12/08 04:57:27;;;;;;;28.50;16.60;;;4.20;99.90;;;;;;5011711;28;20038;-54
2022/12/08 04:59:53;;;;;;;27.37;16.70;;;4.20;99.90;;;;;;5011944;28;20105;-53
2022/12/08 05:02:19;;;;;;;26.60;15.93;;;4.20;99.90;;;;;;5012176;28;20430;-53
2022/12/08 05:04:44;;;;;;;28.53;16.40;;;4.20;99.90;;;;;;5011986;28;20126;-51
2022/12/08 05:07:10;;;;;;;30.03;16.90;;;4.20;99.90;;;;;;5011587;28;20107;-54
2022/12/08 05:09:36;;;;;;;28.60;16.27;;;4.20;99.90;;;;;;5011722;28;20026;-51
2022/12/08 05:12:02;;;;;;;28.13;17.07;;;4.20;99.90;;;;;;5011586;28;20030;-51
2022/12/08 05:14:28;;;;;;;27.47;16.00;;;4.20;99.90;;;;;;5011884;28;20036;-54
2022/12/08 05:16:53;;;;;;;26.90;16.93;;;4.20;99.90;;;;;;5011572;28;20034;-50
2022/12/08 05:19:19;;;;;;;26.20;16.83;;;4.20;99.90;;;;;;5011601;28;20111;-53
2022/12/08 05:21:45;;;;;;;27.57;16.47;;;4.20;99.90;;;;;;5011583;28;20034;-51
2022/12/08 05:24:11;;;;;;;27.53;17.40;;;4.20;99.90;;;;;;5011682;28;20048;-54
2022/12/08 05:26:36;;;;;;;28.93;17.87;;;4.20;99.90;;;;;;5011408;28;20029;-52
2022/12/08 05:29:02;;;;;;;27.07;16.77;;;4.20;99.90;;;;;;5011359;28;20021;-50
2022/12/08 05:31:28;;;;;;;31.47;18.33;;;4.20;99.90;;;;;;5011477;28;20030;-52
2022/12/08 05:33:55;;;;;;;28.17;16.63;;;4.10;99.90;;;;;;5011261;28;20509;-52
2022/12/08 05:36:21;;;;;;;31.03;18.13;;;4.20;99.90;;;;;;5011371;28;20030;-50
2022/12/08 05:38:47;;;;;;;32.90;18.67;;;4.20;99.90;;;;;;5011220;28;20018;-53
2022/12/08 05:41:18;;;;;;;29.23;18.57;;;4.20;99.90;;;;;;5011313;28;20076;-55
2022/12/08 05:43:44;;;;;;;30.03;17.10;;;4.10;99.90;;;;;;5011366;28;20029;-54
2022/12/08 05:46:10;;;;;;;30.27;18.00;;;4.20;99.90;;;;;;5011180;28;20033;-51
2022/12/08 05:48:36;;;;;;;31.17;17.80;;;4.10;99.90;;;;;;5010842;28;20041;-52
2022/12/08 05:51:03;;;;;;;31.07;17.80;;;4.20;99.90;;;;;;5011076;28;20033;-51
2022/12/08 05:53:28;;;;;;;32.57;19.70;;;4.10;99.90;;;;;;5011294;28;20022;-51
2022/12/08 05:55:54;;;;;;;29.97;17.53;;;4.10;99.90;;;;;;5011111;28;20542;-51
2022/12/08 05:58:21;;;;;;;30.47;18.00;;;4.20;99.90;;;;;;5010847;28;20030;-52
2022/12/08 06:00:48;;;;;;;30.50;18.10;;;4.20;99.90;;;;;;5010933;28;20034;-53
2022/12/08 06:03:16;;;;;;;31.73;18.07;;;4.20;99.90;;;;;;5011291;28;20465;-54
2022/12/08 06:05:44;;;;;;;31.80;18.63;;;4.20;99.90;;;;;;5011217;28;20419;-55
2022/12/08 06:08:10;;;;;;;32.37;17.90;;;4.20;99.90;;;;;;5010768;28;20029;-50
2022/12/08 06:10:41;;;;;;;33.23;19.63;;;4.20;99.90;;;;;;5010805;28;20034;-56
2022/12/08 06:13:07;;;;;;;31.97;18.33;;;4.10;99.90;;;;;;5011202;28;20095;-54
2022/12/08 06:15:36;;;;;;;34.73;19.00;;;4.10;99.90;;;;;;5011131;28;20312;-53
2022/12/08 06:18:03;;;;;;;31.40;17.83;;;4.10;99.90;;;;;;5011018;28;20424;-55
2022/12/08 06:20:28;;;;;;;35.03;19.03;;;4.10;99.90;;;;;;5010742;28;20033;-56
2022/12/08 06:22:55;;;;;;;33.13;19.37;;;4.10;99.90;;;;;;5010745;28;20399;-52
2022/12/08 06:25:21;;;;;;;34.57;19.73;;;4.10;99.90;;;;;;5011062;28;20387;-54
2022/12/08 06:27:47;;;;;;;36.33;19.80;;;4.10;99.90;;;;;;5010645;28;20034;-50
2022/12/08 06:30:13;;;;;;;37.70;20.73;;;4.10;99.90;;;;;;5010658;28;20128;-54
2022/12/08 06:32:39;;;;;;;35.53;20.13;;;4.10;99.90;;;;;;5010857;28;20045;-53
2022/12/08 06:35:05;;;;;;;36.63;19.83;;;4.10;99.90;;;;;;5010753;28;20022;-52
2022/12/08 06:37:31;;;;;;;36.47;20.00;;;4.10;99.90;;;;;;5010891;28;20029;-51
2022/12/08 06:39:57;;;;;;;36.30;20.13;;;4.20;99.90;;;;;;5010504;28;20040;-54
2022/12/08 06:45:08;;;;;;;35.07;18.77;;;4.10;99.90;;;;;;5010625;28;20126;-52
2022/12/08 06:47:33;;;;;;;31.57;17.63;;;4.10;99.90;;;;;;5013774;28;20084;-51
2022/12/08 06:49:59;;;;;;;32.83;18.30;;;4.20;99.90;;;;;;5013840;28;20022;-51
2022/12/08 06:52:25;;;;;;;33.07;17.67;;;4.20;99.90;;;;;;5014300;28;20527;-53
2022/12/08 06:54:51;;;;;;;33.67;18.73;;;4.10;99.90;;;;;;5014335;28;20042;-54
2022/12/08 07:00:13;;;;;;;34.07;17.37;;;4.10;99.90;;;;;;4934445;29;20453;-53
2022/12/08 07:02:41;;;;;;;34.63;18.83;;;4.00;99.90;;;;;;4936555;29;20032;-49
2022/12/08 07:05:06;;;;;;;32.57;18.60;;;4.00;99.90;;;;;;4936446;29;20389;-53
2022/12/08 07:07:32;;;;;;;29.07;17.47;;;4.10;99.90;;;;;;4938498;29;20043;-49
2022/12/08 07:09:58;;;;;;;30.53;17.50;;;4.10;99.90;;;;;;4955296;28;20027;-51
2022/12/08 07:12:24;;;;;;;30.67;17.47;;;4.10;99.90;;;;;;4955403;28;20114;-49
2022/12/08 07:14:49;;;;;;;31.13;17.90;;;4.10;99.90;;;;;;4955436;28;20035;-52
2022/12/08 07:17:15;;;;;;;32.57;16.77;;;4.00;99.90;;;;;;4955270;29;20321;-50
2022/12/08 07:19:40;;;;;;;31.13;17.07;;;4.00;99.90;;;;;;4955298;29;20592;-53
2022/12/08 07:22:06;;;;;;;28.67;15.90;;;4.00;99.90;;;;;;4955435;29;20035;-53
2022/12/08 07:24:32;;;;;;;31.60;16.63;;;4.00;99.90;;;;;;4955376;29;20487;-53
2022/12/08 07:26:58;;;;;;;27.33;16.27;;;4.00;99.90;;;;;;4955098;28;20440;-52
2022/12/08 07:29:23;;;;;;;29.10;16.70;;;4.00;99.90;;;;;;4955057;28;20031;-52
2022/12/08 07:31:49;;;;;;;28.97;16.43;;;3.90;99.90;;;;;;4955046;29;20121;-53
2022/12/08 07:34:15;;;;;;;26.57;15.70;;;3.90;99.90;;;;;;4955053;29;20039;-53
2022/12/08 07:36:40;;;;;;;26.30;15.93;;;3.90;99.90;;;;;;4955113;29;20039;-51
2022/12/08 07:39:06;;;;;;;26.43;14.90;;;4.00;99.90;;;;;;4954744;28;20031;-52
2022/12/08 07:41:32;;;;;;;23.93;15.07;;;3.90;99.90;;;;;;4954735;29;20046;-51
2022/12/08 07:43:58;;;;;;;21.57;12.80;;;4.00;99.90;;;;;;4954698;28;20043;-52
2022/12/08 07:46:24;;;;;;;22.07;11.93;;;3.90;99.90;;;;;;4954486;28;20035;-53
2022/12/08 07:48:54;;;;;;;18.63;11.20;;;3.90;99.90;;;;;;4954503;28;20109;-52
2022/12/08 07:51:19;;;;;;;;;;;3.80;99.90;;;;;;4954974;29;20035;-52
2022/12/08 07:53:47;;;;;;;18.30;11.30;;;3.80;99.90;;;;;;4954676;28;19911;-51
2022/12/08 07:56:13;;;;;;;18.80;11.77;;;3.70;99.90;;;;;;4954955;29;20106;-53
2022/12/08 07:58:40;;;;;;;20.60;12.17;;;3.70;99.90;;;;;;4953840;28;20035;-52
2022/12/08 08:01:16;;;;;;;21.87;12.23;;;3.60;99.90;;;;;;4954352;29;20517;-53
2022/12/08 08:03:42;;;;;;;19.77;12.33;;;3.70;99.90;;;;;;4954507;28;20023;-52
2022/12/08 08:06:08;;;;;;;20.27;12.03;;;3.60;99.90;;;;;;4954404;28;20392;-49
2022/12/08 08:08:33;;;;;;;21.77;11.97;;;3.60;99.90;;;;;;4953849;28;20035;-53
2022/12/08 08:10:59;;;;;;;20.70;11.50;;;3.60;99.90;;;;;;4954088;29;20035;-48
2022/12/08 08:13:25;;;;;;;22.50;12.77;;;3.60;99.90;;;;;;4954119;29;20035;-51
2022/12/08 08:15:50;;;;;;;22.17;13.40;;;3.60;99.90;;;;;;4954350;29;20027;-53
2022/12/08 08:18:16;;;;;;;26.37;13.63;;;3.70;99.90;;;;;;4953969;28;20031;-52
2022/12/08 08:20:42;;;;;;;21.00;12.37;;;3.70;99.90;;;;;;4953969;29;20035;-52
2022/12/08 08:23:07;;;;;;;19.90;12.33;;;3.60;99.90;;;;;;4954050;29;20039;-53
2022/12/08 08:25:33;;;;;;;19.83;12.03;;;3.70;99.90;;;;;;4953912;28;20047;-53
2022/12/08 08:27:58;;;;;;;20.03;12.33;;;3.70;99.90;;;;;;4953680;28;20027;-51
2022/12/08 08:30:24;;;;;;;21.17;12.90;;;3.70;99.90;;;;;;4953458;28;20050;-52
2022/12/08 08:32:51;;;;;;;24.70;12.97;;;3.70;99.90;;;;;;4954310;29;20049;-52
2022/12/08 08:35:17;;;;;;;20.33;11.40;;;3.70;99.90;;;;;;4953766;28;20042;-50
2022/12/08 08:37:42;;;;;;;20.93;12.10;;;3.70;99.90;;;;;;4953430;28;20039;-53
2022/12/08 08:40:08;;;;;;;22.00;12.63;;;3.70;99.90;;;;;;4953360;28;20034;-49
2022/12/08 08:42:34;;;;;;;20.37;12.43;;;3.70;99.90;;;;;;4953532;29;20082;-53
2022/12/08 08:45:00;;;;;;;21.10;12.67;;;3.60;99.90;;;;;;4953507;28;20026;-52
2022/12/08 08:47:25;;;;;;;21.23;12.30;;;3.60;99.90;;;;;;4953206;28;20518;-52
2022/12/08 08:49:51;;;;;;;21.07;13.23;;;3.60;99.90;;;;;;4953175;29;20118;-52
2022/12/08 08:52:17;;;;;;;23.80;14.50;;;3.60;99.90;;;;;;4952998;29;20063;-49
2022/12/08 08:54:43;;;;;;;25.27;14.20;;;3.60;99.90;;;;;;4953182;28;20575;-53
2022/12/08 08:57:08;;;;;;;24.70;14.90;;;3.60;99.90;;;;;;4952966;29;20106;-49
2022/12/08 08:59:34;;;;;;;26.67;15.30;;;3.60;99.90;;;;;;4953255;28;20042;-50
2022/12/08 09:02:00;;;;;;;28.83;15.50;;;3.60;99.90;;;;;;4953126;29;20647;-50
2022/12/08 09:04:25;;;;;;;27.93;16.17;;;3.50;99.90;;;;;;4953108;28;20051;-50
2022/12/08 09:06:51;;;;;;;32.13;16.77;;;3.50;99.90;;;;;;4952553;29;20109;-51
2022/12/08 09:09:17;;;;;;;34.10;18.87;;;3.60;99.90;;;;;;4951960;28;20066;-52
2022/12/08 09:11:43;;;;;;;35.63;18.20;;;3.60;99.90;;;;;;4952698;28;20059;-48
2022/12/08 09:14:14;;;;;;;33.27;19.30;;;3.60;99.90;;;;;;4952393;29;20408;-53
2022/12/08 09:16:40;;;;;;;39.40;20.57;;;3.60;99.90;;;;;;4952229;28;20448;-52
2022/12/08 09:19:06;;;;;;;37.37;20.07;;;3.60;99.90;;;;;;4952070;28;20028;-51
2022/12/08 09:21:32;;;;;;;37.30;19.20;;;3.60;99.90;;;;;;4952162;29;20031;-51
2022/12/08 09:23:58;;;;;;;34.50;19.77;;;3.60;99.90;;;;;;4952033;29;20455;-53
2022/12/08 09:26:25;;;;;;;36.67;19.90;;;3.60;99.90;;;;;;4952061;28;20039;-48
2022/12/08 09:28:53;;;;;;;38.93;20.20;;;3.60;99.90;;;;;;4952131;28;20035;-49
2022/12/08 09:31:20;;;;;;;41.73;21.13;;;3.70;99.90;;;;;;4952318;29;20038;-49
2022/12/08 09:33:46;;;;;;;40.83;21.30;;;3.60;99.90;;;;;;4952487;28;20098;-50
2022/12/08 09:36:12;;;;;;;40.93;21.07;;;3.60;99.90;;;;;;4952220;28;20172;-49
2022/12/08 09:38:39;;;;;;;42.00;21.03;;;3.70;99.90;;;;;;4951652;28;20511;-52
2022/12/08 09:41:30;;;;;;;38.40;21.07;;;3.70;99.90;;;;;;4952121;28;20043;-52
2022/12/08 09:44:12;;;;;;;39.90;21.10;;;3.80;99.90;;;;;;4952480;28;20035;-51
2022/12/08 09:46:38;;;;;;;37.50;20.07;;;3.80;99.90;;;;;;4952027;28;20043;-49
2022/12/08 09:49:12;;;;;;;37.80;21.33;;;3.80;99.90;;;;;;4952332;28;20145;-49
2022/12/08 09:51:42;;;;;;;37.93;21.30;;;3.80;99.90;;;;;;4952318;29;20031;-48
2022/12/08 09:54:16;;;;;;;43.05;21.73;;;3.80;99.90;;;;;;4952479;28;20039;-49
2022/12/08 09:56:42;;;;;;;39.87;22.33;;;3.80;99.90;;;;;;4952733;28;20162;-50
2022/12/08 09:59:07;;;;;;;41.03;22.43;;;3.80;99.90;;;;;;4951691;28;20027;-48
2022/12/08 10:01:37;;;;;;;35.03;19.23;;;3.80;99.90;;;;;;4951858;28;20034;-53
2022/12/08 10:04:05;;;;;;;31.60;18.83;;;3.80;99.90;;;;;;4952031;28;20039;-47
2022/12/08 10:06:45;;;;;;;35.73;20.63;;;3.80;99.90;;;;;;4951969;29;20094;-51
2022/12/08 10:09:30;;;;;;;35.10;19.27;;;3.80;99.90;;;;;;4951634;28;20044;-50
2022/12/08 10:12:22;;;;;;;29.10;17.00;;;3.70;99.90;;;;;;4951888;29;20035;-52
2022/12/08 10:15:01;;;;;;;27.37;17.10;;;3.70;99.90;;;;;;4951244;28;20074;-49
2022/12/08 10:17:36;;;;;;;22.90;15.47;;;3.70;99.90;;;;;;4951615;28;20392;-52
2022/12/08 10:20:29;;;;;;;25.60;16.90;;;3.60;99.90;;;;;;4951580;28;20042;-52
2022/12/08 10:23:25;;;;;;;30.63;19.03;;;3.60;99.90;;;;;;4955882;29;20039;-51
2022/12/08 10:26:02;;;;;;;33.53;19.33;;;3.60;99.90;;;;;;4955500;28;20070;-50
2022/12/08 10:28:28;;;;;;;33.77;19.27;;;3.60;99.90;;;;;;4955325;28;20127;-53
2022/12/08 10:30:54;;;;;;;34.10;19.97;;;3.60;99.90;;;;;;4955409;29;20047;-48
2022/12/08 10:33:21;;;;;;;31.77;19.47;;;3.60;99.90;;;;;;4955687;28;20031;-52
2022/12/08 10:35:51;;;;;;;35.57;21.33;;;3.60;99.90;;;;;;4955538;28;20090;-53
2022/12/08 10:38:21;;;;;;;;;;;3.60;99.90;;;;;;4955766;28;20476;-52
2022/12/08 10:40:49;;;;;;;38.33;21.43;;;3.60;99.90;;;;;;4955263;28;19915;-49
2022/12/08 10:43:20;;;;;;;34.23;20.57;;;3.70;99.90;;;;;;4955332;28;20059;-48
2022/12/08 10:45:46;;;;;;;37.53;20.67;;;3.80;99.90;;;;;;4955269;29;20073;-47
2022/12/08 10:48:29;;;;;;;37.50;21.63;;;3.80;99.90;;;;;;4954977;28;20058;-52
2022/12/08 10:50:58;;;;;;;39.67;22.17;;;3.80;99.90;;;;;;4969770;28;20493;-49
2022/12/08 10:53:29;;;;;;;35.83;21.60;;;3.90;99.90;;;;;;4955163;28;20440;-54
2022/12/08 10:56:00;;;;;;;42.83;22.43;;;3.80;99.90;;;;;;4955450;29;20043;-54
2022/12/08 10:58:28;;;;;;;41.60;22.87;;;3.80;99.90;;;;;;4955400;28;20070;-53
2022/12/08 11:01:00;;;;;;;45.37;23.33;;;3.90;99.90;;;;;;4955261;28;20086;-54
2022/12/08 11:03:38;;;;;;;44.60;23.33;;;3.90;99.90;;;;;;4955350;28;20150;-54
2022/12/08 11:06:29;;;;;;;40.73;22.30;;;3.90;99.90;;;;;;4955502;29;20122;-53
2022/12/08 11:08:58;;;;;;;40.80;22.97;;;3.90;99.90;;;;;;4955205;28;20046;-53
2022/12/08 11:11:48;;;;;;;38.63;21.70;;;3.90;99.90;;;;;;4955497;29;20031;-53
2022/12/08 11:14:32;;;;;;;40.97;22.53;;;3.90;99.90;;;;;;4955132;28;20035;-53
2022/12/08 11:17:08;;;;;;;44.03;23.67;;;3.90;99.90;;;;;;4955205;29;20481;-48
2022/12/08 11:19:38;;;;;;;42.67;22.73;;;4.00;99.90;;;;;;4954857;28;20035;-49
2022/12/08 11:22:23;;;;;;;42.03;23.50;;;4.00;99.90;;;;;;4955038;28;20023;-47
2022/12/08 11:25:10;;;;;;;39.60;22.13;;;4.00;99.90;;;;;;4954859;28;20042;-48
2022/12/08 11:27:56;;;;;;;36.27;21.03;;;4.00;99.90;;;;;;4954780;28;20094;-53
2022/12/08 11:30:29;;;;;;;39.27;21.33;;;4.00;99.90;;;;;;4954757;28;20054;-52
2022/12/08 11:33:00;;;;;;;41.63;22.87;;;4.00;99.90;;;;;;4954325;28;20074;-51
2022/12/08 11:35:30;;;;;;;42.37;21.23;;;4.00;99.90;;;;;;4954919;28;20070;-50
2022/12/08 11:38:05;;;;;;;44.10;21.60;;;4.00;99.90;;;;;;4955022;28;20110;-50
2022/12/08 11:40:36;;;;;;;40.70;22.27;;;4.00;99.90;;;;;;4954604;28;20051;-53
2022/12/08 11:43:35;;;;;;;37.53;20.90;;;4.00;99.90;;;;;;4954682;29;20031;-53
2022/12/08 11:46:19;;;;;;;36.05;19.67;;;4.00;99.90;;;;;;4954934;28;20031;-50
2022/12/08 11:48:52;;;;;;;37.07;19.87;;;4.00;99.90;;;;;;4968906;28;20043;-49
2022/12/08 11:51:28;;;;;;;35.90;19.60;;;4.00;99.90;;;;;;4954500;29;20031;-50
2022/12/08 11:54:19;;;;;;;36.40;19.67;;;4.00;99.90;;;;;;4954523;28;20031;-48
2022/12/08 11:56:51;;;;;;;36.83;20.60;;;4.00;99.90;;;;;;4954400;28;20457;-47
2022/12/08 11:59:40;;;;;;;37.00;20.47;;;4.00;99.90;;;;;;4954177;28;20038;-49
2022/12/08 12:02:25;;;;;;;34.78;20.08;;;3.90;99.90;;;;;;4954412;29;20440;-50
2022/12/08 12:05:22;;;;;;;33.40;18.97;;;3.90;99.90;;;;;;4954328;29;20028;-54
2022/12/08 12:07:57;;;;;;;30.27;18.47;;;3.90;99.90;;;;;;4952475;28;20078;-49
2022/12/08 12:10:27;;;;;;;40.63;19.57;;;3.90;99.90;;;;;;4953846;28;20062;-50
2022/12/08 12:13:18;;;;;;;37.20;20.33;;;3.80;99.90;;;;;;4954321;28;20062;-48
2022/12/08 12:16:16;;;;;;;40.70;21.77;;;3.60;99.90;;;;;;4954131;29;20027;-53
2022/12/08 12:18:45;;;;;;;42.45;23.80;;;3.60;99.90;;;;;;4953827;28;20023;-51
2022/12/08 12:21:31;;;;;;;44.03;23.17;;;3.40;99.90;;;;;;4954154;29;20468;-53
2022/12/08 12:24:02;;;;;;;42.50;22.23;;;3.40;99.90;;;;;;4953940;29;20031;-53
2022/12/08 12:26:34;;;;;;;39.13;21.60;;;3.30;99.90;;;;;;4953756;28;20452;-48
2022/12/08 12:29:06;;;;;;;36.13;20.10;;;3.30;99.90;;;;;;4953649;28;20035;-52
2022/12/08 12:31:40;;;;;;;33.97;20.00;;;3.30;99.90;;;;;;4953996;28;20036;-54
2022/12/08 12:34:13;;;;;;;33.53;19.33;;;3.30;99.90;;;;;;4953825;28;20122;-53
2022/12/08 12:36:51;;;;;;;32.33;18.10;;;3.30;99.90;;;;;;4953522;29;20090;-53
2022/12/08 12:39:21;;;;;;;25.77;17.20;;;3.30;99.90;;;;;;4953601;28;20476;-52
2022/12/08 12:41:55;;;;;;;29.03;16.73;;;3.30;99.90;;;;;;4953629;28;20456;-53
2022/12/08 12:44:26;;;;;;;29.30;17.03;;;3.20;99.90;;;;;;4952773;28;20041;-50
2022/12/08 12:46:58;;;;;;;29.07;17.13;;;3.20;99.90;;;;;;4953357;29;20445;-52
2022/12/08 12:49:39;;;;;;;30.93;17.93;;;3.30;99.90;;;;;;4953318;28;20040;-49
2022/12/08 12:52:19;;;;;;;33.70;18.93;;;3.30;99.90;;;;;;4953336;28;20046;-52
2022/12/08 12:54:48;;;;;;;29.00;17.70;;;3.30;99.90;;;;;;4953460;29;20492;-47
2022/12/08 12:57:17;;;;;;;31.10;18.52;;;3.30;99.90;;;;;;4953324;29;20027;-48
2022/12/08 12:59:51;;;;;;;28.83;17.73;;;3.30;99.90;;;;;;5010862;23;20133;-52
2022/12/08 13:02:32;;;;;;;29.83;18.37;;;3.30;99.90;;;;;;5011424;28;20034;-55
2022/12/08 13:05:16;;;;;;;29.80;17.80;;;3.20;99.90;;;;;;5011715;28;20101;-53